createdAt,value
2018-03-26T00:00:28.246Z,98886.20
2018-03-26T00:02:05.852Z,98950.63
2018-03-26T00:03:45.013Z,98932.14
2018-03-26T00:05:22.442Z,98948.84
2018-03-26T00:07:00.055Z,98912.48
2018-03-26T00:08:37.865Z,98868.20
2018-03-26T00:10:16.118Z,98872.95
2018-03-26T00:11:53.817Z,98921.20
2018-03-26T00:13:32.088Z,98921.19
2018-03-26T00:15:10.324Z,98911.61
2018-03-26T00:16:48.303Z,98912.94
2018-03-26T00:18:26.271Z,98948.41
2018-03-26T00:20:03.850Z,98957.61
2018-03-26T00:21:42.417Z,98950.59
2018-03-26T00:23:20.478Z,98950.15
2018-03-26T00:24:58.575Z,98962.92
2018-03-26T00:26:36.093Z,98980.88
2018-03-26T00:28:14.687Z,98980.86
2018-03-26T00:29:53.052Z,99012.39
2018-03-26T00:31:32.145Z,99033.44
2018-03-26T00:33:10.136Z,99056.27
2018-03-26T00:34:48.706Z,99045.35
2018-03-26T00:36:26.727Z,99055.83
2018-03-26T00:38:04.473Z,99047.96
2018-03-26T00:39:42.426Z,99083.92
2018-03-26T00:41:21.299Z,99109.82
2018-03-26T00:42:59.501Z,99038.25
2018-03-26T00:44:37.275Z,98986.06
2018-03-26T00:46:16.380Z,98954.56
2018-03-26T00:47:54.182Z,98940.03
2018-03-26T00:49:33.008Z,98973.42
2018-03-26T00:51:10.690Z,98980.86
2018-03-26T00:52:49.333Z,98972.96
2018-03-26T00:54:27.795Z,98973.81
2018-03-26T00:56:06.361Z,98937.50
2018-03-26T00:57:44.152Z,98930.02
2018-03-26T00:59:22.039Z,98903.66
2018-03-26T01:00:59.937Z,98846.23
2018-03-26T01:02:38.105Z,98797.65
2018-03-26T01:04:15.932Z,98770.09
2018-03-26T01:05:54.927Z,98809.95
2018-03-26T01:07:32.770Z,98832.25
2018-03-26T01:09:10.872Z,98855.02
2018-03-26T01:10:49.260Z,98874.76
2018-03-26T01:12:26.824Z,98903.72
2018-03-26T01:14:04.648Z,98944.47
2018-03-26T01:15:42.908Z,98950.15
2018-03-26T01:17:21.268Z,98943.20
2018-03-26T01:18:59.538Z,98930.48
2018-03-26T01:20:37.737Z,98925.22
2018-03-26T01:22:16.864Z,98824.86
2018-03-26T01:23:54.965Z,98780.57
2018-03-26T01:25:32.847Z,98739.93
2018-03-26T01:27:10.636Z,98715.44
2018-03-26T01:28:49.140Z,98707.55
2018-03-26T01:30:28.605Z,98727.68
2018-03-26T01:32:07.045Z,98728.55
2018-03-26T01:33:44.894Z,98702.69
2018-03-26T01:35:23.997Z,98674.22
2018-03-26T01:37:02.653Z,98678.17
2018-03-26T01:38:40.600Z,98636.13
2018-03-26T01:40:19.498Z,98622.96
2018-03-26T01:43:50.304Z,98661.52
2018-03-26T01:45:30.241Z,98634.39
2018-03-26T01:47:08.539Z,98657.63
2018-03-26T01:48:46.429Z,98597.17
2018-03-26T01:50:24.507Z,98542.55
2018-03-26T01:52:02.599Z,98532.95
2018-03-26T01:53:41.972Z,98555.68
2018-03-26T01:55:19.649Z,98500.59
2018-03-26T01:56:58.030Z,98443.69
2018-03-26T01:58:37.128Z,98428.44
2018-03-26T02:00:18.548Z,98448.98
2018-03-26T02:01:57.361Z,98499.30
2018-03-26T02:03:35.020Z,98490.48
2018-03-26T02:05:13.523Z,98416.22
2018-03-26T02:06:51.823Z,98379.54
2018-03-26T02:08:30.239Z,98328.43
2018-03-26T02:10:09.176Z,98320.62
2018-03-26T02:11:47.711Z,98337.16
2018-03-26T02:13:25.697Z,98378.23
2018-03-26T02:15:04.421Z,98373.42
2018-03-26T02:16:42.033Z,98390.00
2018-03-26T02:18:19.442Z,98369.48
2018-03-26T02:19:57.943Z,98360.72
2018-03-26T02:21:36.645Z,98303.98
2018-03-26T02:23:14.471Z,98300.52
2018-03-26T02:24:52.081Z,98308.84
2018-03-26T02:26:30.718Z,98304.44
2018-03-26T02:28:09.226Z,98330.23
2018-03-26T02:29:46.855Z,98349.86
2018-03-26T02:31:24.740Z,98374.73
2018-03-26T02:33:02.455Z,98383.84
2018-03-26T02:34:43.225Z,98348.11
2018-03-26T02:36:21.892Z,98341.53
2018-03-26T02:37:59.578Z,98303.14
2018-03-26T02:39:37.162Z,98280.04
2018-03-26T02:41:14.959Z,98250.36
2018-03-26T02:42:53.417Z,98190.08
2018-03-26T02:44:31.460Z,98174.40
2018-03-26T02:46:10.380Z,98223.75
2018-03-26T02:47:47.736Z,98303.19
2018-03-26T02:49:25.419Z,98340.32
2018-03-26T02:51:03.729Z,98312.81
2018-03-26T02:52:41.070Z,98267.34
2018-03-26T02:54:19.518Z,98290.95
2018-03-26T02:55:57.247Z,98331.56
2018-03-26T02:57:36.097Z,98343.31
2018-03-26T02:59:13.802Z,98307.55
2018-03-26T03:00:52.710Z,98248.58
2018-03-26T03:02:30.279Z,98249.06
2018-03-26T03:04:08.113Z,98296.69
2018-03-26T03:05:46.488Z,98326.30
2018-03-26T03:07:24.402Z,98307.97
2018-03-26T03:09:02.200Z,98321.94
2018-03-26T03:10:40.115Z,98379.19
2018-03-26T03:12:18.270Z,98444.72
2018-03-26T03:13:55.785Z,98469.19
2018-03-26T03:15:33.525Z,98461.75
2018-03-26T03:17:11.757Z,98449.94
2018-03-26T03:18:49.448Z,98441.23
2018-03-26T03:20:26.965Z,98464.35
2018-03-26T03:22:06.065Z,98449.51
2018-03-26T03:23:44.121Z,98339.86
2018-03-26T03:25:22.556Z,98289.69
2018-03-26T03:27:00.179Z,98263.91
2018-03-26T03:28:37.582Z,98276.18
2018-03-26T03:30:17.501Z,98276.61
2018-03-26T03:31:55.871Z,98284.06
2018-03-26T03:33:33.470Z,98288.39
2018-03-26T03:35:11.202Z,98269.61
2018-03-26T03:36:49.742Z,98255.19
2018-03-26T03:38:28.585Z,98277.53
2018-03-26T03:40:07.220Z,98300.22
2018-03-26T03:41:44.793Z,98276.64
2018-03-26T03:43:22.531Z,98227.72
2018-03-26T03:44:59.938Z,98262.27
2018-03-26T03:46:37.426Z,98292.79
2018-03-26T03:48:15.410Z,98322.89
2018-03-26T03:49:52.248Z,98329.48
2018-03-26T03:51:28.910Z,98279.31
2018-03-26T03:53:06.646Z,98195.86
2018-03-26T03:54:45.202Z,98102.55
2018-03-26T03:56:23.242Z,98029.23
2018-03-26T03:58:00.370Z,98002.23
2018-03-26T03:59:37.616Z,98000.48
2018-03-26T04:01:16.349Z,97976.08
2018-03-26T04:02:53.592Z,97966.53
2018-03-26T04:04:31.554Z,97977.42
2018-03-26T04:06:08.859Z,97950.80
2018-03-26T04:07:46.543Z,97951.23
2018-03-26T04:09:24.660Z,97947.30
2018-03-26T04:11:03.144Z,97977.91
2018-03-26T04:12:40.727Z,98048.48
2018-03-26T04:14:18.534Z,98099.94
2018-03-26T04:15:56.535Z,98068.98
2018-03-26T04:17:34.319Z,98081.64
2018-03-26T04:19:11.785Z,98011.75
2018-03-26T04:20:49.880Z,98007.92
2018-03-26T04:22:27.698Z,98019.70
2018-03-26T04:24:05.326Z,98037.16
2018-03-26T04:25:42.802Z,98069.88
2018-03-26T04:27:21.047Z,98068.55
2018-03-26T04:28:58.858Z,98044.52
2018-03-26T04:30:36.289Z,98025.34
2018-03-26T04:32:13.767Z,98073.36
2018-03-26T04:33:51.423Z,98144.47
2018-03-26T04:35:28.730Z,98165.36
2018-03-26T04:37:07.173Z,98162.41
2018-03-26T04:38:45.077Z,98091.67
2018-03-26T04:40:23.347Z,98045.52
2018-03-26T04:42:01.500Z,98012.78
2018-03-26T04:43:39.470Z,97995.79
2018-03-26T04:45:19.682Z,98014.10
2018-03-26T04:46:57.820Z,98052.89
2018-03-26T04:48:35.150Z,98023.23
2018-03-26T04:50:13.034Z,98027.13
2018-03-26T04:51:50.798Z,98040.61
2018-03-26T04:53:28.887Z,98093.03
2018-03-26T04:55:07.096Z,98124.44
2018-03-26T04:56:46.305Z,98122.69
2018-03-26T04:58:23.985Z,98165.00
2018-03-26T05:00:02.201Z,98213.44
2018-03-26T05:01:39.782Z,98253.16
2018-03-26T05:03:17.364Z,98271.97
2018-03-26T05:04:54.501Z,98291.17
2018-03-26T05:06:32.943Z,98289.47
2018-03-26T05:08:10.349Z,98273.77
2018-03-26T05:09:47.914Z,98241.41
2018-03-26T05:11:25.165Z,98193.81
2018-03-26T05:13:03.601Z,98202.13
2018-03-26T05:14:41.204Z,98219.16
2018-03-26T05:16:19.275Z,98171.16
2018-03-26T05:17:56.258Z,98179.94
2018-03-26T05:19:35.199Z,98205.58
2018-03-26T05:21:12.526Z,98246.20
2018-03-26T05:22:51.135Z,98269.34
2018-03-26T05:24:29.557Z,98305.64
2018-03-26T05:26:07.458Z,98326.13
2018-03-26T05:27:46.068Z,98368.53
2018-03-26T05:29:24.558Z,98388.64
2018-03-26T05:31:02.437Z,98408.23
2018-03-26T05:32:40.552Z,98431.41
2018-03-26T05:34:17.926Z,98464.61
2018-03-26T05:35:56.138Z,98466.37
2018-03-26T05:37:33.861Z,98467.28
2018-03-26T05:39:11.881Z,98445.87
2018-03-26T05:40:49.864Z,98443.66
2018-03-26T05:42:27.405Z,98443.24
2018-03-26T05:44:05.186Z,98401.72
2018-03-26T05:45:43.245Z,98372.02
2018-03-26T05:47:20.681Z,98362.47
2018-03-26T05:48:58.608Z,98351.91
2018-03-26T05:50:36.191Z,98344.55
2018-03-26T05:52:14.257Z,98359.88
2018-03-26T05:53:52.089Z,98325.83
2018-03-26T05:55:29.843Z,98270.31
2018-03-26T05:57:07.663Z,98204.85
2018-03-26T05:58:46.407Z,98204.88
2018-03-26T06:00:26.607Z,98199.18
2018-03-26T06:02:04.456Z,98136.75
2018-03-26T06:03:42.054Z,98086.72
2018-03-26T06:05:20.017Z,98042.61
2018-03-26T06:06:57.761Z,98022.16
2018-03-26T06:08:35.618Z,98003.80
2018-03-26T06:10:13.427Z,98031.34
2018-03-26T06:11:51.249Z,98022.57
2018-03-26T06:13:28.888Z,98029.98
2018-03-26T06:15:07.662Z,98003.80
2018-03-26T06:16:58.133Z,98038.67
2018-03-26T06:18:36.556Z,98057.45
2018-03-26T06:20:14.350Z,98047.03
2018-03-26T06:21:52.955Z,98068.00
2018-03-26T06:23:30.586Z,98072.34
2018-03-26T06:25:09.053Z,98078.84
2018-03-26T06:26:46.908Z,98105.88
2018-03-26T06:28:25.905Z,98144.28
2018-03-26T06:30:04.047Z,98153.89
2018-03-26T06:31:42.391Z,98168.25
2018-03-26T06:33:20.923Z,98153.05
2018-03-26T06:34:58.571Z,98098.91
2018-03-26T06:36:36.624Z,98061.41
2018-03-26T06:38:14.948Z,97968.94
2018-03-26T06:39:52.411Z,97909.28
2018-03-26T06:41:32.976Z,97939.33
2018-03-26T06:43:11.622Z,97991.64
2018-03-26T06:44:49.531Z,97998.56
2018-03-26T06:46:28.280Z,98023.98
2018-03-26T06:48:06.238Z,98047.03
2018-03-26T06:49:44.709Z,98039.22
2018-03-26T06:51:22.780Z,98044.02
2018-03-26T06:53:00.924Z,98061.03
2018-03-26T06:54:38.482Z,98098.48
2018-03-26T06:56:16.699Z,98067.94
2018-03-26T06:57:54.600Z,98061.95
2018-03-26T06:59:32.260Z,98090.28
2018-03-26T07:01:10.299Z,98030.50
2018-03-26T07:02:47.986Z,97974.68
2018-03-26T07:04:26.121Z,97968.13
2018-03-26T07:06:04.530Z,98025.33
2018-03-26T07:07:49.709Z,98051.09
2018-03-26T07:09:28.406Z,98031.91
2018-03-26T07:11:06.428Z,98050.63
2018-03-26T07:12:43.752Z,98045.83
2018-03-26T07:14:22.004Z,98062.38
2018-03-26T07:16:01.118Z,98055.37
2018-03-26T07:17:39.615Z,98081.54
2018-03-26T07:19:17.391Z,98064.55
2018-03-26T07:20:55.293Z,98076.77
2018-03-26T07:22:33.835Z,98108.63
2018-03-26T07:24:11.608Z,98102.05
2018-03-26T07:25:49.207Z,98091.17
2018-03-26T07:27:26.799Z,98114.70
2018-03-26T07:29:04.526Z,98136.09
2018-03-26T07:30:41.924Z,98172.30
2018-03-26T07:32:19.559Z,98211.55
2018-03-26T07:33:57.729Z,98285.37
2018-03-26T07:35:35.705Z,98319.86
2018-03-26T07:37:13.680Z,98350.39
2018-03-26T07:38:51.009Z,98363.41
2018-03-26T07:40:28.303Z,98380.55
2018-03-26T07:42:05.968Z,98310.67
2018-03-26T07:43:43.287Z,98198.45
2018-03-26T07:45:21.229Z,98191.48
2018-03-26T07:46:59.638Z,98241.68
2018-03-26T07:48:38.630Z,98307.20
2018-03-26T07:50:16.097Z,98353.05
2018-03-26T07:51:53.433Z,98421.17
2018-03-26T07:53:30.692Z,98516.91
2018-03-26T07:55:08.506Z,98561.06
2018-03-26T07:56:46.535Z,98579.84
2018-03-26T07:58:23.947Z,98600.86
2018-03-26T08:00:01.293Z,98579.02
2018-03-26T08:01:38.854Z,98539.25
2018-03-26T08:03:16.242Z,98545.34
2018-03-26T08:04:53.635Z,98555.91
2018-03-26T08:06:31.122Z,98545.36
2018-03-26T08:08:09.070Z,98565.03
2018-03-26T08:09:54.292Z,98596.08
2018-03-26T08:11:32.467Z,98612.66
2018-03-26T08:13:09.746Z,98577.69
2018-03-26T08:14:47.550Z,98543.63
2018-03-26T08:16:25.112Z,98487.26
2018-03-26T08:18:02.705Z,98479.80
2018-03-26T08:19:40.094Z,98491.66
2018-03-26T08:21:18.271Z,98534.08
2018-03-26T08:22:55.543Z,98598.75
2018-03-26T08:24:33.013Z,98656.51
2018-03-26T08:26:10.337Z,98756.80
2018-03-26T08:27:48.989Z,98819.87
2018-03-26T08:29:26.634Z,98826.48
2018-03-26T08:31:04.832Z,98776.06
2018-03-26T08:32:42.970Z,98807.21
2018-03-26T08:34:22.046Z,98867.21
2018-03-26T08:36:00.257Z,98906.23
2018-03-26T08:37:38.411Z,98916.29
2018-03-26T08:39:15.731Z,98923.75
2018-03-26T08:40:53.291Z,98940.85
2018-03-26T08:42:30.997Z,98947.88
2018-03-26T08:44:08.735Z,98950.97
2018-03-26T08:45:47.167Z,98879.91
2018-03-26T08:47:24.907Z,98866.80
2018-03-26T08:49:01.930Z,98843.66
2018-03-26T08:50:40.669Z,98845.39
2018-03-26T08:52:18.964Z,98848.42
2018-03-26T08:53:56.821Z,98848.48
2018-03-26T08:55:33.880Z,98837.02
2018-03-26T08:57:11.053Z,98880.84
2018-03-26T08:58:48.364Z,98972.03
2018-03-26T09:00:28.289Z,98989.13
2018-03-26T09:02:05.456Z,99056.24
2018-03-26T09:03:43.179Z,99139.61
2018-03-26T09:05:21.481Z,99180.47
2018-03-26T09:07:00.442Z,99263.92
2018-03-26T09:08:37.513Z,99332.88
2018-03-26T09:10:15.738Z,99283.23
2018-03-26T09:11:53.775Z,99339.02
2018-03-26T09:13:32.158Z,99395.32
2018-03-26T09:15:09.582Z,99454.28
2018-03-26T09:16:47.517Z,99363.74
2018-03-26T09:18:25.058Z,99289.88
2018-03-26T09:20:02.098Z,99163.37
2018-03-26T09:21:39.266Z,99163.80
2018-03-26T09:23:16.390Z,99139.66
2018-03-26T09:24:53.891Z,99189.25
2018-03-26T09:26:31.495Z,99224.48
2018-03-26T09:28:08.626Z,99187.11
2018-03-26T09:29:45.769Z,99150.23
2018-03-26T09:31:23.521Z,99155.89
2018-03-26T09:33:01.845Z,99201.52
2018-03-26T09:34:38.835Z,99196.33
2018-03-26T09:36:16.413Z,99235.45
2018-03-26T09:37:54.351Z,99296.95
2018-03-26T09:39:32.674Z,99314.09
2018-03-26T09:41:09.762Z,99291.67
2018-03-26T09:42:47.146Z,99251.70
2018-03-26T09:44:25.856Z,99234.58
2018-03-26T09:46:03.934Z,99250.86
2018-03-26T09:47:41.329Z,99266.66
2018-03-26T09:49:18.595Z,99264.88
2018-03-26T09:50:56.701Z,99298.30
2018-03-26T09:52:34.599Z,99340.93
2018-03-26T09:54:11.929Z,99340.03
2018-03-26T09:55:48.907Z,99269.30
2018-03-26T09:57:26.486Z,99298.30
2018-03-26T09:59:04.146Z,99391.09
2018-03-26T10:00:45.372Z,99390.16
2018-03-26T10:02:24.009Z,99423.59
2018-03-26T10:04:00.876Z,99480.31
2018-03-26T10:05:38.667Z,99542.75
2018-03-26T10:07:16.895Z,99524.27
2018-03-26T10:08:54.356Z,99468.47
2018-03-26T10:10:31.765Z,99372.54
2018-03-26T10:12:12.152Z,99352.81
2018-03-26T10:13:50.111Z,99307.52
2018-03-26T10:15:29.571Z,99315.00
2018-03-26T10:17:06.699Z,99318.08
2018-03-26T10:18:44.168Z,99285.55
2018-03-26T10:20:21.460Z,99251.31
2018-03-26T10:21:58.484Z,99243.38
2018-03-26T10:23:35.486Z,99254.88
2018-03-26T10:25:12.916Z,99193.31
2018-03-26T10:26:49.897Z,99163.50
2018-03-26T10:28:27.012Z,99190.24
2018-03-26T10:30:06.970Z,99144.14
2018-03-26T10:31:45.530Z,99141.89
2018-03-26T10:33:22.998Z,99131.87
2018-03-26T10:34:59.913Z,99117.34
2018-03-26T10:36:37.338Z,99051.14
2018-03-26T10:38:14.856Z,99047.23
2018-03-26T10:39:52.494Z,99056.41
2018-03-26T10:41:31.433Z,99103.36
2018-03-26T10:43:12.721Z,99192.01
2018-03-26T10:44:51.110Z,99204.73
2018-03-26T10:46:28.671Z,99218.36
2018-03-26T10:48:06.190Z,99271.52
2018-03-26T10:49:44.258Z,99266.69
2018-03-26T10:54:54.980Z,99513.33
2018-03-26T10:56:35.153Z,99485.17
2018-03-26T11:06:41.154Z,99503.20
2018-03-26T11:08:18.189Z,99501.00
2018-03-26T11:09:55.223Z,99527.00
2018-03-26T11:11:32.228Z,99669.12
2018-03-26T11:13:09.774Z,99743.55
2018-03-26T11:14:46.875Z,99819.36
2018-03-26T11:16:24.231Z,99798.59
2018-03-26T11:18:01.714Z,99764.67
2018-03-26T11:19:39.508Z,99699.45
2018-03-26T11:21:16.716Z,99610.98
2018-03-26T11:22:54.849Z,99572.28
2018-03-26T11:26:30.373Z,99428.06
2018-03-26T11:28:12.068Z,99450.50
2018-03-26T11:36:47.778Z,99519.97
2018-03-26T11:38:32.513Z,99512.92
2018-03-26T11:40:10.072Z,99496.21
2018-03-26T11:41:47.150Z,99540.66
2018-03-26T11:43:25.349Z,99628.23
2018-03-26T11:45:02.377Z,99693.78
2018-03-26T11:46:40.733Z,99697.79
2018-03-26T11:48:17.838Z,99744.45
2018-03-26T11:49:55.962Z,99775.68
2018-03-26T11:51:37.888Z,99747.53
2018-03-26T11:53:16.074Z,99883.25
2018-03-26T11:54:54.648Z,99881.52
2018-03-26T11:58:24.454Z,99927.34
2018-03-26T12:04:12.141Z,99797.70
2018-03-26T12:05:49.984Z,99814.05
2018-03-26T12:07:30.714Z,99719.78
2018-03-26T12:09:08.433Z,99598.25
2018-03-26T12:10:46.159Z,99588.11
2018-03-26T12:12:23.305Z,99563.98
2018-03-26T12:14:01.182Z,99579.33
2018-03-26T12:15:38.986Z,99586.38
2018-03-26T12:17:16.353Z,99653.30
2018-03-26T12:18:54.221Z,99671.33
2018-03-26T12:21:06.110Z,99599.56
2018-03-26T12:22:44.446Z,99638.30
2018-03-26T12:25:28.036Z,99588.11
2018-03-26T12:27:07.455Z,99636.53
2018-03-26T12:29:00.285Z,99707.86
2018-03-26T12:30:37.745Z,99708.75
2018-03-26T12:32:15.757Z,99709.19
2018-03-26T12:34:05.736Z,99730.73
2018-03-26T12:35:55.597Z,99762.51
2018-03-26T12:37:32.561Z,99773.55
2018-03-26T12:39:14.499Z,99801.24
2018-03-26T12:40:54.130Z,99758.05
2018-03-26T12:42:31.901Z,99800.80
2018-03-26T12:44:08.856Z,99857.69
2018-03-26T12:46:02.045Z,99843.55
2018-03-26T12:53:15.466Z,99805.68
2018-03-26T12:54:53.949Z,99754.53
2018-03-26T12:56:31.085Z,99685.92
2018-03-26T12:58:46.337Z,99642.28
2018-03-26T13:00:31.130Z,99539.30
2018-03-26T13:02:27.238Z,99521.22
2018-03-26T13:04:04.904Z,99552.95
2018-03-26T13:05:42.390Z,99654.59
2018-03-26T13:07:19.561Z,99766.47
2018-03-26T13:08:56.773Z,99871.31
2018-03-26T13:10:33.786Z,99988.66
2018-03-26T13:12:11.329Z,100015.57
2018-03-26T13:13:48.617Z,99975.43
2018-03-26T13:15:28.839Z,99828.11
2018-03-26T13:17:07.073Z,99759.41
2018-03-26T13:18:44.566Z,99741.78
2018-03-26T13:20:21.750Z,99744.42
2018-03-26T13:21:58.772Z,99717.10
2018-03-26T13:23:36.176Z,99721.95
2018-03-26T13:25:14.825Z,99756.30
2018-03-26T13:26:53.193Z,99802.54
2018-03-26T13:28:33.739Z,99872.66
2018-03-26T13:30:12.427Z,99937.98
2018-03-26T13:31:53.870Z,100018.66
2018-03-26T13:33:31.973Z,99986.87
2018-03-26T13:35:09.060Z,99930.45
2018-03-26T13:36:47.102Z,99911.88
2018-03-26T13:38:25.404Z,99907.53
2018-03-26T13:40:03.631Z,99932.61
2018-03-26T13:41:40.959Z,100021.75
2018-03-26T13:43:19.000Z,100078.67
2018-03-26T13:44:56.713Z,99926.45
2018-03-26T13:46:34.244Z,99770.35
2018-03-26T13:48:11.876Z,99771.30
2018-03-26T13:49:48.969Z,99798.10
2018-03-26T13:51:27.318Z,99800.79
2018-03-26T13:53:08.936Z,99816.68
2018-03-26T13:54:54.747Z,99853.70
2018-03-26T13:56:32.809Z,99940.53
2018-03-26T13:58:10.057Z,99932.59
2018-03-26T13:59:47.997Z,99974.52
2018-03-26T14:01:25.307Z,99988.19
2018-03-26T14:03:03.021Z,99931.70
2018-03-26T14:04:40.118Z,99944.52
2018-03-26T14:06:17.172Z,99897.78
2018-03-26T14:12:57.749Z,99993.05
2018-03-26T14:15:50.264Z,99976.66
2018-03-26T14:21:51.266Z,100005.36
2018-03-26T14:23:28.362Z,100042.02
2018-03-26T14:25:05.930Z,100115.32
2018-03-26T14:28:16.538Z,100261.95
2018-03-26T14:30:00.058Z,100259.73
2018-03-26T14:31:38.100Z,100202.72
2018-03-26T14:33:16.675Z,100175.32
2018-03-26T14:35:08.130Z,100174.88
2018-03-26T14:36:46.000Z,100185.48
2018-03-26T14:38:23.462Z,100125.44
2018-03-26T14:40:00.625Z,100098.03
2018-03-26T14:41:37.940Z,100118.78
2018-03-26T14:43:16.204Z,100001.38
2018-03-26T14:44:54.008Z,100000.05
2018-03-26T14:46:31.500Z,100047.28
2018-03-26T14:48:09.484Z,100089.22
2018-03-26T14:49:47.373Z,100111.74
2018-03-26T14:51:24.910Z,100163.81
2018-03-26T14:53:01.914Z,100192.98
2018-03-26T14:54:39.019Z,100251.75
2018-03-26T14:56:16.374Z,100268.97
2018-03-26T14:57:54.010Z,100223.42
2018-03-26T15:01:31.784Z,100115.66
2018-03-26T15:03:09.453Z,100092.71
2018-03-26T15:04:48.824Z,100150.56
2018-03-26T15:06:26.765Z,100172.20
2018-03-26T15:08:05.652Z,100165.55
2018-03-26T15:09:43.417Z,100168.22
2018-03-26T15:11:22.398Z,100171.77
2018-03-26T15:12:59.580Z,100194.73
2018-03-26T15:14:38.687Z,100106.88
2018-03-26T15:16:19.031Z,99998.23
2018-03-26T15:17:56.652Z,99972.24
2018-03-26T15:19:33.626Z,100020.78
2018-03-26T15:21:11.409Z,100013.66
2018-03-26T15:22:48.896Z,100006.66
2018-03-26T15:24:27.375Z,100023.41
2018-03-26T15:26:05.005Z,100057.44
2018-03-26T15:27:41.970Z,100105.97
2018-03-26T15:29:19.693Z,100154.53
2018-03-26T15:30:58.621Z,100110.34
2018-03-26T15:32:36.961Z,100067.55
2018-03-26T15:34:14.194Z,100063.98
2018-03-26T15:35:51.333Z,100030.02
2018-03-26T15:37:29.185Z,100072.35
2018-03-26T15:39:07.460Z,100118.27
2018-03-26T15:40:45.100Z,100111.66
2018-03-26T15:42:23.267Z,100104.16
2018-03-26T15:44:01.368Z,100119.17
2018-03-26T15:45:38.749Z,100096.22
2018-03-26T16:02:43.965Z,100153.09
2018-03-26T16:04:28.138Z,100168.55
2018-03-26T16:06:05.510Z,100203.03
2018-03-26T16:07:44.305Z,100237.92
2018-03-26T16:09:21.598Z,100217.98
2018-03-26T16:10:59.154Z,100257.36
2018-03-26T16:12:36.373Z,100207.91
2018-03-26T16:14:14.232Z,100202.13
2018-03-26T16:15:52.371Z,100211.42
2018-03-26T16:17:29.718Z,100189.34
2018-03-26T16:19:07.593Z,100124.81
2018-03-26T16:28:55.483Z,99996.85
2018-03-26T16:30:34.037Z,99987.53
2018-03-26T16:32:11.919Z,100028.66
2018-03-26T16:33:49.981Z,100058.61
2018-03-26T16:35:27.780Z,100083.31
2018-03-26T16:37:04.876Z,100078.03
2018-03-26T16:38:44.089Z,99971.67
2018-03-26T16:40:21.068Z,99917.44
2018-03-26T16:42:11.801Z,99835.36
2018-03-26T16:43:53.801Z,99754.77
2018-03-26T16:45:31.605Z,99737.13
2018-03-26T16:47:08.856Z,99761.76
2018-03-26T16:48:49.357Z,99774.11
2018-03-26T16:50:29.917Z,99770.15
2018-03-26T16:52:08.393Z,99759.53
2018-03-26T16:53:46.463Z,99761.81
2018-03-26T16:55:24.186Z,99775.44
2018-03-26T16:57:07.070Z,99817.72
2018-03-26T17:04:43.757Z,99930.56
2018-03-26T17:06:23.808Z,99983.52
2018-03-26T17:08:02.393Z,100055.44
2018-03-26T17:09:39.644Z,100108.37
2018-03-26T17:11:17.295Z,100122.09
2018-03-26T17:12:55.216Z,100151.27
2018-03-26T17:14:33.514Z,100149.02
2018-03-26T17:16:10.787Z,100136.19
2018-03-26T17:17:48.687Z,100149.04
2018-03-26T17:19:27.695Z,100144.59
2018-03-26T17:21:05.588Z,100101.28
2018-03-26T17:22:43.149Z,99992.74
2018-03-26T17:24:21.240Z,99893.11
2018-03-26T17:25:58.693Z,99837.52
2018-03-26T17:37:26.073Z,100020.95
2018-03-26T17:39:03.356Z,100014.34
2018-03-26T17:40:40.361Z,100050.14
2018-03-26T17:42:17.793Z,100098.67
2018-03-26T17:43:55.129Z,100129.98
2018-03-26T17:45:35.421Z,100164.00
2018-03-26T17:47:12.658Z,100229.80
2018-03-26T17:48:50.699Z,100282.42
2018-03-26T17:50:28.494Z,100271.79
2018-03-26T17:52:06.239Z,100270.89
2018-03-26T17:53:43.272Z,100315.55
2018-03-26T17:55:21.146Z,100339.42
2018-03-26T17:56:59.019Z,100369.47
2018-03-26T17:58:36.238Z,100385.84
2018-03-26T18:10:05.576Z,100514.59
2018-03-26T18:11:42.641Z,100556.61
2018-03-26T18:13:19.622Z,100550.00
2018-03-26T18:14:56.541Z,100506.16
2018-03-26T18:16:33.976Z,100517.71
2018-03-26T18:18:10.970Z,100532.75
2018-03-26T18:19:48.761Z,100469.47
2018-03-26T18:21:28.478Z,100315.09
2018-03-26T18:23:07.913Z,100324.38
2018-03-26T18:24:45.221Z,100409.73
2018-03-26T18:26:22.888Z,100420.34
2018-03-26T18:28:00.337Z,100338.07
2018-03-26T18:29:38.870Z,100276.17
2018-03-26T18:31:16.177Z,100225.81
2018-03-26T18:32:53.213Z,100310.63
2018-03-26T18:34:30.796Z,100407.52
2018-03-26T18:36:08.827Z,100460.11
2018-03-26T18:37:46.081Z,100605.75
2018-03-26T18:39:23.504Z,100721.37
2018-03-26T18:41:00.678Z,100776.33
2018-03-26T18:42:38.131Z,100757.22
2018-03-26T18:44:15.686Z,100734.19
2018-03-26T18:45:54.255Z,100731.52
2018-03-26T18:47:31.360Z,100707.61
2018-03-26T18:49:08.855Z,100675.70
2018-03-26T18:50:45.966Z,100575.17
2018-03-26T18:52:23.097Z,100496.38
2018-03-26T18:54:00.495Z,100425.55
2018-03-26T18:55:37.601Z,100348.18
2018-03-26T18:57:14.915Z,100271.70
2018-03-26T18:58:52.084Z,100048.64
2018-03-26T19:00:31.761Z,99838.73
2018-03-26T19:02:09.548Z,99708.73
2018-03-26T19:03:46.779Z,99659.43
2018-03-26T19:05:24.887Z,99565.66
2018-03-26T19:07:02.520Z,99519.53
2018-03-26T19:08:39.702Z,99507.17
2018-03-26T19:10:16.878Z,99455.25
2018-03-26T19:11:53.964Z,99435.84
2018-03-26T19:13:32.234Z,99413.39
2018-03-26T19:15:10.263Z,99405.98
2018-03-26T19:16:48.229Z,99432.82
2018-03-26T19:18:26.416Z,99455.19
2018-03-26T19:20:03.598Z,99460.92
2018-03-26T19:21:41.321Z,99474.58
2018-03-26T19:32:52.799Z,99234.52
2018-03-26T19:36:54.383Z,99206.42
2018-03-26T19:38:31.505Z,99227.92
2018-03-26T19:40:09.735Z,99256.52
2018-03-26T19:41:47.149Z,99308.80
2018-03-26T19:43:25.656Z,99339.08
2018-03-26T19:45:02.612Z,99380.39
2018-03-26T19:46:41.944Z,99388.77
2018-03-26T19:48:20.940Z,99423.89
2018-03-26T19:49:58.482Z,99502.23
2018-03-26T19:51:35.528Z,99554.97
2018-03-26T19:53:12.906Z,99587.95
2018-03-26T19:54:50.579Z,99653.09
2018-03-26T19:56:29.870Z,99702.37
2018-03-26T19:58:08.096Z,99747.80
2018-03-26T19:59:46.002Z,99804.17
2018-03-26T20:03:07.237Z,99748.74
2018-03-26T20:04:44.211Z,99639.88
2018-03-26T20:06:21.863Z,99633.83
2018-03-26T20:07:59.403Z,99653.61
2018-03-26T20:09:38.289Z,99765.89
2018-03-26T20:11:15.348Z,99896.34
2018-03-26T20:18:49.086Z,99560.67
2018-03-26T20:20:28.931Z,99551.47
2018-03-26T20:28:33.570Z,99524.18
2018-03-26T20:30:10.472Z,99479.78
2018-03-26T20:31:47.702Z,99515.84
2018-03-26T20:33:25.151Z,99492.57
2018-03-26T20:35:02.752Z,99424.74
2018-03-26T20:36:39.848Z,99484.17
2018-03-26T20:38:18.205Z,99491.66
2018-03-26T20:39:56.766Z,99605.19
2018-03-26T20:41:34.708Z,99611.70
2018-03-26T20:43:12.251Z,99564.17
2018-03-26T20:44:49.292Z,99687.47
2018-03-26T20:46:27.269Z,99820.51
2018-03-26T20:48:09.587Z,99906.44
2018-03-26T20:53:28.341Z,100002.62
2018-03-26T20:55:06.030Z,100049.80
2018-03-26T20:56:44.016Z,99991.98
2018-03-26T20:58:24.049Z,99939.09
2018-03-26T21:00:04.602Z,99883.11
2018-03-26T21:01:43.202Z,99885.31
2018-03-26T21:03:22.470Z,99956.74
2018-03-26T21:05:01.119Z,99997.81
2018-03-26T21:06:39.222Z,99991.18
2018-03-26T21:08:18.234Z,99955.84
2018-03-26T21:09:56.132Z,99931.61
2018-03-26T21:11:34.232Z,100007.48
2018-03-26T21:13:11.496Z,100009.23
2018-03-26T21:14:48.613Z,100024.22
2018-03-26T21:16:27.564Z,100022.44